createdAt,value
2023-04-17T00:01:55.916Z,7.43
2023-04-17T00:04:24.474Z,7.50
2023-04-17T00:06:54.132Z,7.53
2023-04-17T00:09:22.547Z,7.54
2023-04-17T00:11:50.919Z,7.53
2023-04-17T00:14:19.168Z,7.54
2023-04-17T00:16:47.656Z,7.58
2023-04-17T00:19:16.637Z,7.63
2023-04-17T00:21:44.866Z,7.65
2023-04-17T00:24:13.726Z,7.66
2023-04-17T00:26:42.518Z,7.65
2023-04-17T00:29:11.289Z,7.66
2023-04-17T00:31:40.259Z,7.73
2023-04-17T00:34:08.490Z,7.79
2023-04-17T00:36:36.767Z,7.82
2023-04-17T00:39:05.279Z,7.85
2023-04-17T00:41:35.940Z,7.84
2023-04-17T00:44:04.438Z,7.82
2023-04-17T00:46:32.922Z,7.80
2023-04-17T00:49:01.614Z,7.79
2023-04-17T00:51:31.938Z,7.79
2023-04-17T00:54:00.448Z,7.78
2023-04-17T00:56:29.967Z,7.78
2023-04-17T00:58:58.553Z,7.75
2023-04-17T01:01:27.052Z,7.75
2023-04-17T01:03:56.124Z,7.79
2023-04-17T01:06:24.612Z,7.83
2023-04-17T01:08:53.146Z,7.84
2023-04-17T01:11:22.278Z,7.83
2023-04-17T01:13:51.215Z,7.82
2023-04-17T01:16:20.933Z,7.81
2023-04-17T01:18:49.556Z,7.82
2023-04-17T01:21:18.273Z,7.86
2023-04-17T01:23:50.256Z,7.90
2023-04-17T01:26:25.033Z,7.90
2023-04-17T01:28:57.616Z,7.88
2023-04-17T01:31:26.517Z,7.86
2023-04-17T01:33:55.334Z,7.81
2023-04-17T01:36:23.693Z,7.79
2023-04-17T01:38:52.006Z,7.79
2023-04-17T01:41:20.227Z,7.81
2023-04-17T01:43:48.688Z,7.83
2023-04-17T01:46:17.554Z,7.82
2023-04-17T01:48:46.084Z,7.80
2023-04-17T01:51:15.041Z,7.76
2023-04-17T01:53:43.522Z,7.76
2023-04-17T01:56:14.008Z,7.81
2023-04-17T01:58:43.552Z,7.86
2023-04-17T02:01:11.736Z,7.89
2023-04-17T02:03:40.012Z,7.90
2023-04-17T02:06:08.646Z,7.88
2023-04-17T02:08:38.237Z,7.83
2023-04-17T02:11:06.472Z,7.81
2023-04-17T02:13:34.957Z,7.80
2023-04-17T02:16:04.893Z,7.83
2023-04-17T02:18:33.468Z,7.86
2023-04-17T02:21:02.045Z,7.88
2023-04-17T02:23:31.035Z,7.87
2023-04-17T02:25:59.203Z,7.84
2023-04-17T02:28:27.687Z,7.84
2023-04-17T02:30:56.080Z,7.85
2023-04-17T02:33:24.752Z,7.88
2023-04-17T02:35:54.207Z,7.87
2023-04-17T02:38:25.908Z,7.83
2023-04-17T02:40:54.301Z,7.76
2023-04-17T02:43:22.672Z,7.72
2023-04-17T02:45:51.707Z,7.72
2023-04-17T02:48:20.162Z,7.71
2023-04-17T02:50:48.849Z,7.68
2023-04-17T02:53:19.865Z,7.65
2023-04-17T02:55:48.354Z,7.62
2023-04-17T02:58:17.549Z,7.63
2023-04-17T03:00:46.055Z,7.65
2023-04-17T03:03:17.596Z,7.69
2023-04-17T03:05:46.073Z,7.68
2023-04-17T03:08:14.883Z,7.64
2023-04-17T03:10:47.946Z,7.61
2023-04-17T03:13:16.963Z,7.58
2023-04-17T03:15:45.216Z,7.57
2023-04-17T03:18:13.799Z,7.57
2023-04-17T03:20:42.182Z,7.59
2023-04-17T03:23:11.623Z,7.60
2023-04-17T03:25:40.030Z,7.64
2023-04-17T03:28:09.175Z,7.71
2023-04-17T03:30:37.630Z,7.77
2023-04-17T03:33:07.744Z,7.84
2023-04-17T03:35:37.729Z,7.86
2023-04-17T03:38:08.934Z,7.86
2023-04-17T03:40:37.304Z,7.84
2023-04-17T03:43:06.790Z,7.82
2023-04-17T03:45:37.487Z,7.81
2023-04-17T03:48:06.348Z,7.85
2023-04-17T03:50:34.915Z,7.87
2023-04-17T03:53:03.252Z,7.89
2023-04-17T03:55:32.244Z,7.90
2023-04-17T03:58:01.541Z,7.90
2023-04-17T04:00:32.110Z,7.93
2023-04-17T04:03:02.716Z,7.98
2023-04-17T04:05:38.541Z,8.00
2023-04-17T04:08:08.471Z,8.00
2023-04-17T04:10:45.167Z,7.97
2023-04-17T04:13:16.759Z,7.99
2023-04-17T04:15:49.613Z,8.05
2023-04-17T04:18:20.881Z,8.09
2023-04-17T04:20:49.562Z,8.10
2023-04-17T04:23:25.293Z,8.11
2023-04-17T04:25:57.096Z,8.12
2023-04-17T04:28:30.577Z,8.18
2023-04-17T04:30:59.016Z,8.26
2023-04-17T04:33:30.900Z,8.31
2023-04-17T04:36:01.824Z,8.34
2023-04-17T04:38:31.513Z,8.37
2023-04-17T04:41:10.494Z,8.39
2023-04-17T04:43:40.256Z,8.43
2023-04-17T04:46:11.100Z,8.50
2023-04-17T04:48:44.601Z,8.59
2023-04-17T04:51:13.724Z,8.65
2023-04-17T04:53:42.382Z,8.69
2023-04-17T04:56:12.191Z,8.70
2023-04-17T04:58:40.743Z,8.73
2023-04-17T05:01:09.209Z,8.80
2023-04-17T05:03:41.642Z,8.89
2023-04-17T05:06:11.660Z,8.93
2023-04-17T05:08:45.330Z,8.93
2023-04-17T05:11:16.840Z,8.95
2023-04-17T05:13:45.486Z,8.99
2023-04-17T05:16:18.343Z,9.04
2023-04-17T05:18:48.431Z,9.07
2023-04-17T05:21:20.076Z,9.08
2023-04-17T05:23:50.907Z,9.08
2023-04-17T05:26:22.373Z,9.10
2023-04-17T05:28:54.173Z,9.16
2023-04-17T05:31:25.388Z,9.19
2023-04-17T05:33:53.752Z,9.19
2023-04-17T05:36:22.660Z,9.18
2023-04-17T05:38:51.436Z,9.19
2023-04-17T05:41:19.816Z,9.25
2023-04-17T05:43:48.289Z,9.33
2023-04-17T05:46:21.998Z,9.41
2023-04-17T05:48:50.368Z,9.45
2023-04-17T05:51:19.061Z,9.45
2023-04-17T05:53:49.111Z,9.46
2023-04-17T05:56:17.457Z,9.49
2023-04-17T05:58:46.348Z,9.57
2023-04-17T06:01:18.382Z,9.65
2023-04-17T06:03:46.867Z,9.73
2023-04-17T06:06:21.728Z,9.78
2023-04-17T06:08:50.357Z,9.81
2023-04-17T06:11:18.694Z,9.88
2023-04-17T06:13:47.786Z,9.96
2023-04-17T06:16:17.146Z,10.07
2023-04-17T06:18:47.668Z,10.17
2023-04-17T06:21:16.515Z,10.25
2023-04-17T06:23:44.837Z,10.29
2023-04-17T06:26:13.154Z,10.32
2023-04-17T06:28:41.395Z,10.33
2023-04-17T06:31:10.878Z,10.32
2023-04-17T06:33:40.815Z,10.35
2023-04-17T06:36:11.144Z,10.42
2023-04-17T06:38:47.401Z,10.52
2023-04-17T06:41:17.741Z,10.56
2023-04-17T06:43:46.250Z,10.59
2023-04-17T06:46:15.954Z,10.64
2023-04-17T06:48:44.408Z,10.68
2023-04-17T06:51:12.985Z,10.75
2023-04-17T06:53:41.467Z,10.79
2023-04-17T06:56:12.205Z,10.84
2023-04-17T06:58:44.586Z,10.92
2023-04-17T07:01:13.864Z,11.06
2023-04-17T07:03:42.507Z,11.26
2023-04-17T07:06:11.072Z,11.43
2023-04-17T07:08:39.564Z,11.52
2023-04-17T07:11:07.768Z,11.57
2023-04-17T07:13:36.575Z,11.63
2023-04-17T07:16:06.992Z,11.64
2023-04-17T07:18:37.708Z,11.58
2023-04-17T07:21:06.262Z,11.52
2023-04-17T07:23:35.916Z,11.49
2023-04-17T07:26:04.147Z,11.50
2023-04-17T07:28:33.057Z,11.51
2023-04-17T07:31:01.444Z,11.52
2023-04-17T07:33:29.997Z,11.52
2023-04-17T07:35:58.397Z,11.57
2023-04-17T07:38:27.388Z,11.63
2023-04-17T07:40:57.240Z,11.66
2023-04-17T07:43:27.279Z,11.74
2023-04-17T07:45:56.452Z,11.82
2023-04-17T07:48:24.943Z,11.86
2023-04-17T07:51:00.370Z,11.96
2023-04-17T07:53:29.496Z,12.05
2023-04-17T07:55:58.587Z,12.14
2023-04-17T07:58:27.456Z,12.17
2023-04-17T08:00:55.753Z,12.18
2023-04-17T08:03:24.826Z,12.22
2023-04-17T08:05:54.346Z,12.22
2023-04-17T08:08:24.022Z,12.28
2023-04-17T08:10:52.726Z,12.40
2023-04-17T08:13:21.225Z,12.41
2023-04-17T08:15:49.351Z,12.54
2023-04-17T08:18:17.751Z,12.80
2023-04-17T08:20:46.166Z,13.20
2023-04-17T08:23:14.398Z,13.50
2023-04-17T08:25:42.617Z,13.65
2023-04-17T08:29:19.775Z,13.83
2023-04-17T08:31:48.460Z,13.83
2023-04-17T08:34:18.314Z,13.92
2023-04-17T08:36:48.002Z,14.05
2023-04-17T08:39:17.083Z,14.17
2023-04-17T08:41:51.395Z,14.28
2023-04-17T08:44:20.470Z,14.48
2023-04-17T08:46:49.726Z,14.54
2023-04-17T08:49:18.076Z,14.49
2023-04-17T08:51:47.475Z,14.39
2023-04-17T08:54:15.956Z,14.27
2023-04-17T08:56:44.233Z,14.25
2023-04-17T08:59:12.632Z,14.26
2023-04-17T09:02:04.006Z,14.26
2023-04-17T09:04:38.699Z,14.21
2023-04-17T09:07:07.456Z,14.13
2023-04-17T09:09:55.907Z,13.98
2023-04-17T09:12:25.600Z,13.83
2023-04-17T09:14:54.216Z,13.77
2023-04-17T09:17:22.421Z,13.86
2023-04-17T09:20:12.370Z,13.90
2023-04-17T09:22:41.255Z,13.88
2023-04-17T09:25:23.417Z,13.94
2023-04-17T09:27:51.875Z,14.15
2023-04-17T09:30:27.994Z,14.43
2023-04-17T09:33:05.789Z,14.63
2023-04-17T09:35:37.068Z,14.74
2023-04-17T09:38:07.667Z,14.80
2023-04-17T09:40:40.939Z,14.81
2023-04-17T09:43:10.594Z,14.63
2023-04-17T09:45:42.682Z,14.41
2023-04-17T09:48:12.868Z,14.13
2023-04-17T09:50:41.343Z,13.85
2023-04-17T09:53:16.171Z,13.67
2023-04-17T09:55:45.168Z,13.61
2023-04-17T09:58:13.440Z,13.60
2023-04-17T10:00:42.020Z,13.59
2023-04-17T10:03:11.267Z,13.59
2023-04-17T10:05:40.214Z,13.64
2023-04-17T10:08:08.594Z,13.64
2023-04-17T10:10:37.793Z,13.78
2023-04-17T10:13:08.541Z,14.03
2023-04-17T10:15:38.756Z,14.21
2023-04-17T10:18:23.660Z,14.34
2023-04-17T10:20:54.022Z,14.45
2023-04-17T10:23:33.355Z,14.54
2023-04-17T10:26:25.672Z,14.63
2023-04-17T10:28:54.972Z,14.75
2023-04-17T10:31:24.855Z,14.85
2023-04-17T10:33:54.608Z,14.97
2023-04-17T10:36:48.837Z,15.09
2023-04-17T10:39:18.558Z,15.17
2023-04-17T10:42:06.395Z,15.26
2023-04-17T10:44:40.659Z,15.43
2023-04-17T10:49:51.513Z,15.81
2023-04-17T10:52:35.182Z,16.05
2023-04-17T10:55:16.453Z,16.37
2023-04-17T10:58:02.590Z,16.76
2023-04-17T11:00:38.235Z,17.03
2023-04-17T11:03:07.046Z,17.24
2023-04-17T11:05:36.209Z,17.44
2023-04-17T11:08:05.236Z,17.71
2023-04-17T11:10:35.962Z,17.89
2023-04-17T11:13:04.256Z,18.05
2023-04-17T11:15:37.258Z,18.19
2023-04-17T11:18:05.684Z,18.22
2023-04-17T11:20:37.266Z,18.18
2023-04-17T11:23:07.300Z,18.02
2023-04-17T11:25:36.075Z,17.78
2023-04-17T11:28:06.454Z,17.69
2023-04-17T11:30:36.371Z,17.58
2023-04-17T11:33:06.088Z,17.48
2023-04-17T11:35:39.519Z,17.57
2023-04-17T11:38:17.887Z,17.80
2023-04-17T11:40:59.225Z,18.00
2023-04-17T11:43:28.426Z,18.17
2023-04-17T11:46:01.837Z,18.33
2023-04-17T11:48:30.394Z,18.39
2023-04-17T11:51:03.441Z,18.38
2023-04-17T11:53:32.695Z,18.44
2023-04-17T11:56:17.057Z,18.54
2023-04-17T11:58:53.316Z,18.58
2023-04-17T12:01:26.601Z,18.48
2023-04-17T12:03:59.292Z,18.40
2023-04-17T12:06:37.282Z,18.34
2023-04-17T12:09:07.276Z,18.32
2023-04-17T12:11:36.146Z,18.40
2023-04-17T12:14:12.520Z,18.60
2023-04-17T12:16:41.466Z,18.78
2023-04-17T12:19:11.779Z,18.87
2023-04-17T12:21:40.053Z,18.99
2023-04-17T12:24:08.564Z,19.21
2023-04-17T12:26:37.221Z,19.49
2023-04-17T12:29:05.707Z,19.65
2023-04-17T12:31:35.427Z,19.58
2023-04-17T12:34:03.690Z,19.53
2023-04-17T12:36:33.039Z,19.44
2023-04-17T12:39:01.881Z,19.24
2023-04-17T12:41:30.572Z,19.05
2023-04-17T12:44:02.042Z,18.96
2023-04-17T12:46:30.906Z,19.09
2023-04-17T12:48:59.610Z,19.39
2023-04-17T12:51:32.584Z,19.65
2023-04-17T12:54:01.905Z,19.59
2023-04-17T12:56:30.575Z,19.43
2023-04-17T12:59:03.041Z,19.33
2023-04-17T13:01:31.795Z,19.17
2023-04-17T13:04:00.387Z,18.86
2023-04-17T13:06:28.904Z,18.59
2023-04-17T13:08:57.389Z,18.57
2023-04-17T13:11:26.792Z,18.75
2023-04-17T13:13:55.266Z,18.96
2023-04-17T13:16:23.775Z,19.08
2023-04-17T13:18:52.229Z,19.04
2023-04-17T13:21:20.608Z,18.99
2023-04-17T13:23:49.495Z,19.04
2023-04-17T13:26:18.184Z,18.97
2023-04-17T13:28:46.274Z,18.90
2023-04-17T13:31:14.883Z,18.84
2023-04-17T13:33:43.114Z,18.92
2023-04-17T13:36:11.497Z,19.13
2023-04-17T13:38:39.890Z,19.36
2023-04-17T13:41:08.163Z,19.49
2023-04-17T13:43:39.499Z,19.52
2023-04-17T13:46:11.898Z,19.64
2023-04-17T13:48:40.150Z,19.68
2023-04-17T13:51:08.633Z,19.66
2023-04-17T13:53:37.003Z,19.61
2023-04-17T13:56:05.946Z,19.47
2023-04-17T13:58:34.923Z,19.40
2023-04-17T14:01:03.192Z,19.29
2023-04-17T14:03:32.504Z,18.97
2023-04-17T14:06:01.192Z,18.66
2023-04-17T14:08:29.568Z,18.53
2023-04-17T14:10:57.810Z,18.50
2023-04-17T14:13:25.991Z,18.48
2023-04-17T14:15:54.980Z,18.52
2023-04-17T14:18:24.941Z,18.58
2023-04-17T14:20:54.430Z,18.48
2023-04-17T14:23:22.764Z,18.35
2023-04-17T14:25:51.037Z,18.23
2023-04-17T14:28:21.250Z,18.13
2023-04-17T14:30:50.790Z,18.06
2023-04-17T14:33:18.959Z,18.00
2023-04-17T14:35:47.327Z,18.03
2023-04-17T14:38:15.714Z,18.06
2023-04-17T14:40:43.910Z,17.90
2023-04-17T14:43:12.335Z,17.59
2023-04-17T14:45:40.796Z,17.30
2023-04-17T14:48:09.156Z,17.00
2023-04-17T14:50:37.531Z,16.64
2023-04-17T14:53:05.912Z,16.28
2023-04-17T14:55:34.574Z,16.04
2023-04-17T14:58:03.795Z,15.91
2023-04-17T15:00:32.384Z,15.80
2023-04-17T15:03:01.215Z,15.68
2023-04-17T15:05:29.769Z,15.51
2023-04-17T15:07:58.146Z,15.37
2023-04-17T15:10:28.692Z,15.24
2023-04-17T15:13:00.628Z,15.21
2023-04-17T15:15:28.901Z,15.19
2023-04-17T15:17:57.824Z,15.20
2023-04-17T15:20:28.433Z,15.20
2023-04-17T15:22:56.805Z,15.17
2023-04-17T15:25:25.490Z,15.09
2023-04-17T15:27:54.808Z,15.02
2023-04-17T15:30:24.369Z,14.96
2023-04-17T15:32:52.832Z,14.87
2023-04-17T15:35:21.364Z,14.82
2023-04-17T15:37:49.771Z,14.75
2023-04-17T15:40:18.140Z,14.64
2023-04-17T15:42:46.810Z,14.52
2023-04-17T15:45:15.423Z,14.39
2023-04-17T15:47:43.893Z,14.27
2023-04-17T15:50:13.078Z,14.20
2023-04-17T15:52:41.564Z,14.15
2023-04-17T15:55:10.343Z,14.10
2023-04-17T15:57:39.329Z,14.06
2023-04-17T16:00:12.249Z,14.02
2023-04-17T16:02:41.072Z,13.95
2023-04-17T16:05:10.100Z,13.87
2023-04-17T16:07:38.686Z,13.77
2023-04-17T16:10:14.597Z,13.67
2023-04-17T16:12:43.758Z,13.58
2023-04-17T16:15:12.927Z,13.51
2023-04-17T16:17:42.144Z,13.44
2023-04-17T16:20:13.980Z,13.38
2023-04-17T16:22:42.881Z,13.34
2023-04-17T16:25:13.914Z,13.28
2023-04-17T16:27:42.139Z,13.22
2023-04-17T16:30:11.295Z,13.12
2023-04-17T16:32:40.019Z,13.02
2023-04-17T16:35:09.482Z,12.91
2023-04-17T16:37:37.756Z,12.82
2023-04-17T16:40:07.330Z,12.74
2023-04-17T16:42:36.157Z,12.65
2023-04-17T16:45:07.653Z,12.55
2023-04-17T16:47:36.455Z,12.45
2023-04-17T16:50:08.024Z,12.36
2023-04-17T16:52:39.409Z,12.24
2023-04-17T16:55:08.672Z,12.11
2023-04-17T16:57:38.557Z,11.98
2023-04-17T17:00:08.393Z,11.85
2023-04-17T17:02:37.309Z,11.75
2023-04-17T17:05:07.275Z,11.63
2023-04-17T17:07:36.034Z,11.49
2023-04-17T17:10:04.821Z,11.36
2023-04-17T17:12:32.985Z,11.25
2023-04-17T17:15:01.272Z,11.18
2023-04-17T17:17:30.325Z,11.16
2023-04-17T17:19:59.055Z,11.15
2023-04-17T17:22:30.715Z,11.12
2023-04-17T17:24:59.006Z,11.06
2023-04-17T17:27:27.252Z,10.95
2023-04-17T17:29:57.796Z,10.83
2023-04-17T17:32:27.185Z,10.71
2023-04-17T17:34:55.682Z,10.60
2023-04-17T17:37:25.978Z,10.47
2023-04-17T17:39:55.517Z,10.37
2023-04-17T17:42:23.817Z,10.27
2023-04-17T17:44:52.092Z,10.16
2023-04-17T17:47:20.289Z,10.06
2023-04-17T17:49:49.873Z,9.96
2023-04-17T17:52:18.967Z,9.87
2023-04-17T17:54:48.169Z,9.82
2023-04-17T17:57:16.342Z,9.83
2023-04-17T17:59:45.690Z,9.84
2023-04-17T18:02:14.613Z,9.83
2023-04-17T18:04:43.252Z,9.79
2023-04-17T18:07:11.910Z,9.74
2023-04-17T18:09:40.094Z,9.68
2023-04-17T18:12:09.483Z,9.62
2023-04-17T18:14:37.873Z,9.57
2023-04-17T18:17:06.332Z,9.55
2023-04-17T18:19:41.114Z,9.50
2023-04-17T18:22:09.656Z,9.52
2023-04-17T18:24:40.293Z,9.61
2023-04-17T18:27:08.607Z,9.68
2023-04-17T18:29:36.883Z,9.76
2023-04-17T18:32:05.429Z,9.83
2023-04-17T18:34:34.323Z,9.86
2023-04-17T18:37:04.243Z,9.89
2023-04-17T18:39:34.445Z,9.90
2023-04-17T18:42:02.970Z,9.89
2023-04-17T18:44:31.632Z,9.88
2023-04-17T18:46:59.922Z,9.85
2023-04-17T18:49:28.401Z,9.79
2023-04-17T18:51:56.767Z,9.71
2023-04-17T18:54:24.954Z,9.63
2023-04-17T18:56:53.429Z,9.58
2023-04-17T18:59:21.731Z,9.57
2023-04-17T19:01:50.081Z,9.57
2023-04-17T19:04:19.283Z,9.53
2023-04-17T19:06:47.873Z,9.49
2023-04-17T19:09:16.140Z,9.48
2023-04-17T19:11:44.838Z,9.46
2023-04-17T19:14:13.103Z,9.46
2023-04-17T19:16:41.459Z,9.44
2023-04-17T19:19:11.470Z,9.43
2023-04-17T19:21:39.874Z,9.42
2023-04-17T19:24:08.875Z,9.40
2023-04-17T19:26:37.459Z,9.43
2023-04-17T19:29:07.804Z,9.50
2023-04-17T19:31:38.270Z,9.56
2023-04-17T19:34:08.738Z,9.61
2023-04-17T19:36:40.293Z,9.60
2023-04-17T19:39:08.581Z,9.58
2023-04-17T19:41:37.673Z,9.56
2023-04-17T19:44:06.047Z,9.53
2023-04-17T19:46:34.420Z,9.54
2023-04-17T19:49:02.723Z,9.54
2023-04-17T19:51:31.793Z,9.52
2023-04-17T19:53:59.982Z,9.47
2023-04-17T19:56:28.344Z,9.46
2023-04-17T19:59:06.170Z,9.48
2023-04-17T20:01:35.598Z,9.47
2023-04-17T20:04:04.108Z,9.43
2023-04-17T20:06:32.715Z,9.40
2023-04-17T20:09:03.140Z,9.37
2023-04-17T20:11:32.547Z,9.34
2023-04-17T20:14:00.859Z,9.30
2023-04-17T20:16:29.254Z,9.27
2023-04-17T20:18:57.994Z,9.22
2023-04-17T20:21:26.986Z,9.19
2023-04-17T20:23:55.569Z,9.19
2023-04-17T20:26:24.973Z,9.21
2023-04-17T20:28:57.058Z,9.19
2023-04-17T20:31:25.240Z,9.15
2023-04-17T20:33:54.928Z,9.10
2023-04-17T20:36:23.102Z,9.04
2023-04-17T20:38:51.789Z,8.97
2023-04-17T20:41:20.165Z,8.90
2023-04-17T20:44:10.325Z,8.83
2023-04-17T20:48:03.555Z,8.81
2023-04-17T20:50:32.008Z,8.84
2023-04-17T20:53:03.360Z,8.87
2023-04-17T20:55:33.665Z,8.87
2023-04-17T20:58:01.943Z,8.84
2023-04-17T21:00:30.408Z,8.79
2023-04-17T21:02:58.900Z,8.72
2023-04-17T21:05:27.687Z,8.67
2023-04-17T21:07:57.861Z,8.59
2023-04-17T21:10:26.282Z,8.54
2023-04-17T21:12:54.662Z,8.53
2023-04-17T21:15:22.937Z,8.54
2023-04-17T21:17:51.119Z,8.52
2023-04-17T21:20:19.289Z,8.51
2023-04-17T21:22:47.480Z,8.49
2023-04-17T21:25:15.636Z,8.46
2023-04-17T21:27:44.529Z,8.43
2023-04-17T21:30:13.012Z,8.42
2023-04-17T21:32:42.733Z,8.39
2023-04-17T21:35:11.819Z,8.41
2023-04-17T21:37:40.300Z,8.44
2023-04-17T21:40:09.294Z,8.46
2023-04-17T21:42:38.088Z,8.42
2023-04-17T21:45:07.048Z,8.37
2023-04-17T21:47:37.158Z,8.31
2023-04-17T21:50:08.166Z,8.25
2023-04-17T21:52:36.617Z,8.18
2023-04-17T21:55:07.916Z,8.14
2023-04-17T21:57:39.214Z,8.14
2023-04-17T22:00:12.680Z,8.13
2023-04-17T22:02:43.612Z,8.11
2023-04-17T22:05:12.777Z,8.13
2023-04-17T22:07:53.700Z,8.16
2023-04-17T22:10:25.244Z,8.13
2023-04-17T22:12:53.583Z,8.10
2023-04-17T22:15:21.865Z,8.09
2023-04-17T22:17:52.105Z,8.06
2023-04-17T22:20:20.354Z,8.12
2023-04-17T22:22:48.642Z,8.25
2023-04-17T22:25:19.381Z,8.34
2023-04-17T22:27:47.806Z,8.40
2023-04-17T22:30:16.746Z,8.44
2023-04-17T22:32:45.452Z,8.45
2023-04-17T22:35:13.907Z,8.46
2023-04-17T22:37:43.156Z,8.48
2023-04-17T22:40:14.752Z,8.50
2023-04-17T22:42:43.144Z,8.53
2023-04-17T22:45:12.469Z,8.57
2023-04-17T22:47:42.259Z,8.60
2023-04-17T22:50:12.786Z,8.63
2023-04-17T22:52:41.724Z,8.64
2023-04-17T22:55:11.180Z,8.64
2023-04-17T22:57:40.729Z,8.64
2023-04-17T23:00:10.425Z,8.63
2023-04-17T23:02:41.725Z,8.66
2023-04-17T23:05:09.952Z,8.73
2023-04-17T23:07:38.508Z,8.78
2023-04-17T23:10:07.595Z,8.80
2023-04-17T23:12:35.990Z,8.82
2023-04-17T23:15:04.932Z,8.82
2023-04-17T23:17:33.677Z,8.81
2023-04-17T23:20:01.862Z,8.78
2023-04-17T23:22:31.159Z,8.74
2023-04-17T23:25:02.787Z,8.71
2023-04-17T23:27:32.224Z,8.67
2023-04-17T23:30:00.493Z,8.64
2023-04-17T23:32:33.302Z,8.61
2023-04-17T23:35:01.685Z,8.57
2023-04-17T23:37:31.166Z,8.53
2023-04-17T23:40:01.491Z,8.49
2023-04-17T23:42:29.871Z,8.43
2023-04-17T23:44:58.162Z,8.37
2023-04-17T23:47:26.868Z,8.34
2023-04-17T23:49:55.533Z,8.36
2023-04-17T23:52:23.906Z,8.37
2023-04-17T23:54:53.072Z,8.37
2023-04-17T23:57:21.358Z,8.36
2023-04-17T23:59:49.624Z,8.33
